CheckWX is a tool to help pilots better visualize weather data.  It is not intended as a substitute for an official pre-flight weather briefing.

02:19:37 UTC

KSEG METAR
Penn Valley Airport
Selinsgrove, Pennsylvania, USA
Current

27 mins ago

KSEG 200153Z AUTO 00000KT 10SM CLR 21/21 A3005 RMK AO2 SLP172 T02110206
Observed
Aug-20 @ 01:53 UTC
Visibility
10 SM
Flight Rules
VFR
Cloud Levels
  • Clear skies
Temperature
21°C / 70°F
Dewpoint
21°C / 70°F
Humidity
100%
Altimeter
30.05" Hg
Pressure
1017.62 hPa
Previous

1 hour ago

KSEG 200053Z AUTO 00000KT 10SM CLR 23/21 A3003 RMK AO2 SLP168 T02280211
Observed
Aug-20 @ 00:53 UTC
Visibility
10 SM
Flight Rules
VFR
Cloud Levels
  • Clear skies
Temperature
23°C / 73°F
Dewpoint
21°C / 70°F
Humidity
89%
Altimeter
30.03" Hg
Pressure
1016.92 hPa
Previous

2 hours ago

KSEG 192353Z AUTO 00000KT 9SM CLR 25/22 A3001 RMK AO2 SLP158 T02500222 10311 20250 53004
Observed
Aug-19 @ 23:53 UTC
Visibility
9 SM
Flight Rules
VFR
Cloud Levels
  • Clear skies
Temperature
25°C / 77°F
Dewpoint
22°C / 72°F
Humidity
83%
Altimeter
30.01" Hg
Pressure
1016.22 hPa